| time (UTC) | temp F | wind direction | speed MPH | gust MPH | rain 1hr in | rain 24hr in | rain mn in | humidity % | barometer mb |
| 20260906221017 | 94 | 90 | 7.0 | 15.0 | 0.00 | 0.00 | 0.00 | 28 | 1016.0 |
| 20260906220017 | 94 | 90 | 3.0 | 9.0 | 0.00 | 0.00 | 0.00 | 29 | 1016.1 |
| 20260906215016 | 94 | 68 | 2.0 | 6.0 | 0.00 | 0.00 | 0.00 | 29 | 1016.2 |
| 20260906214036 | 94 | 68 | 5.0 | 9.0 | 0.00 | 0.00 | 0.00 | 29 | 1016.4 |
| 20260906213017 | 95 | 68 | 5.0 | 13.0 | 0.00 | 0.00 | 0.00 | 27 | 1016.8 |
| 20260906212017 | 95 | 90 | 2.0 | 6.0 | 0.00 | 0.00 | 0.00 | 29 | 1016.7 |
| 20260906211016 | 94 | 23 | 3.0 | 8.0 | 0.00 | 0.00 | 0.00 | 28 | 1016.6 |
| 20260906210037 | 94 | 68 | 1.0 | 6.0 | 0.00 | 0.00 | 0.00 | 29 | 1017.3 |
| 20260906205017 | 94 | 90 | 3.0 | 8.0 | 0.00 | 0.00 | 0.00 | 29 | 1017.3 |
| 20260906204037 | 94 | 90 | 2.0 | 7.0 | 0.00 | 0.00 | 0.00 | 31 | 1017.8 |
| 20260906203036 | 93 | 90 | 3.0 | 7.0 | 0.00 | 0.00 | 0.00 | 30 | 1017.8 |
| 20260906202017 | 92 | 0 | 2.0 | 8.0 | 0.00 | 0.00 | 0.00 | 30 | 1018.0 |
| 20260906201037 | 92 | 90 | 3.0 | 9.0 | 0.00 | 0.00 | 0.00 | 30 | 1018.1 |
| 20260906200017 | 92 | 0 | 3.0 | 9.0 | 0.00 | 0.00 | 0.00 | 29 | 1018.5 |
| 20260906195017 | 92 | 23 | 3.0 | 8.0 | 0.00 | 0.00 | 0.00 | 29 | 1018.2 |
| 20260906194017 | 90 | 23 | 3.0 | 9.0 | 0.00 | 0.00 | 0.00 | 30 | 1018.4 |
| 20260906193017 | 90 | 45 | 3.0 | 9.0 | 0.00 | 0.00 | 0.00 | 32 | 1018.7 |
| 20260906192037 | 89 | 90 | 2.0 | 10.0 | 0.00 | 0.00 | 0.00 | 31 | 1018.8 |
| 20260906191036 | 89 | 90 | 2.0 | 7.0 | 0.00 | 0.00 | 0.00 | 36 | 1018.8 |
| 20260906190036 | 88 | 0 | 2.0 | 8.0 | 0.00 | 0.00 | 0.00 | 35 | 1019.1 |
| 20260906185037 | 87 | 23 | 3.0 | 7.0 | 0.00 | 0.00 | 0.00 | 37 | 1019.5 |
| 20260906184037 | 86 | 23 | 2.0 | 8.0 | 0.00 | 0.00 | 0.00 | 39 | 1019.5 |
| 20260906183017 | 86 | 23 | 3.0 | 9.0 | 0.00 | 0.00 | 0.00 | 37 | 1019.9 |
| 20260906182017 | 85 | 23 | 2.0 | 7.0 | 0.00 | 0.00 | 0.00 | 40 | 1019.9 |
| 20260906181037 | 84 | 90 | 1.0 | 3.0 | 0.00 | 0.00 | 0.00 | 43 | 1020.2 |
| 20260906180017 | 84 | 338 | 1.0 | 4.0 | 0.00 | 0.00 | 0.00 | 41 | 1020.7 |
| 20260906175017 | 84 | 0.0 | 3.0 | 0.00 | 0.00 | 0.00 | 42 | 1021.0 | |
| 20260906174017 | 83 | 0 | 2.0 | 5.0 | 0.00 | 0.00 | 0.00 | 40 | 1020.7 |
| 20260906173017 | 82 | 0.0 | 2.0 | 0.00 | 0.00 | 0.00 | 41 | 1020.6 | |
| 20260906172016 | 81 | 315 | 1.0 | 3.0 | 0.00 | 0.00 | 0.00 | 43 | 1020.9 |
| 20260906171037 | 80 | 90 | 1.0 | 5.0 | 0.00 | 0.00 | 0.00 | 42 | 1020.6 |
| 20260906170017 | 79 | 0 | 1.0 | 4.0 | 0.00 | 0.00 | 0.00 | 47 | 1020.5 |
| 20260906165037 | 77 | 90 | 3.0 | 7.0 | 0.00 | 0.00 | 0.00 | 50 | 1020.4 |
| 20260906164017 | 75 | 23 | 1.0 | 4.0 | 0.00 | 0.00 | 0.00 | 51 | 1020.0 |
| 20260906163017 | 74 | 0.0 | 2.0 | 0.00 | 0.00 | 0.00 | 53 | 1019.8 | |
| 20260906162036 | 72 | 0.0 | 4.0 | 0.00 | 0.00 | 0.00 | 56 | 1019.4 | |
| 20260906161017 | 71 | 90 | 1.0 | 4.0 | 0.00 | 0.00 | 0.00 | 60 | 1019.1 |
| 20260906160017 | 69 | 23 | 2.0 | 4.0 | 0.00 | 0.00 | 0.00 | 62 | 1019.2 |
| 20260906155016 | 68 | 0 | 1.0 | 5.0 | 0.00 | 0.00 | 0.00 | 63 | 1019.1 |
| 20260906154037 | 67 | 0.0 | 3.0 | 0.00 | 0.00 | 0.00 | 65 | 1018.7 | |
| 20260906153017 | 67 | 0.0 | 3.0 | 0.00 | 0.00 | 0.00 | 71 | 1019.2 | |
| 20260906152017 | 66 | 0.0 | 4.0 | 0.00 | 0.00 | 0.00 | 71 | 1019.3 | |
| 20260906151017 | 65 | 0.0 | 0.0 | 0.00 | 0.00 | 0.00 | 71 | 1019.0 | |
| 20260906150017 | 64 | 0.0 | 2.0 | 0.00 | 0.00 | 0.00 | 69 | 1019.3 | |
| 20260906145017 | 63 | 0.0 | 1.0 | 0.00 | 0.00 | 0.00 | 75 | 1018.9 | |
| 20260906144017 | 62 | 0.0 | 3.0 | 0.00 | 0.00 | 0.00 | 76 | 1018.9 | |
| 20260906143017 | 61 | 0.0 | 0.0 | 0.00 | 0.00 | 0.00 | 78 | 1019.0 | |
| 20260906142017 | 60 | 0.0 | 0.0 | 0.00 | 0.00 | 0.00 | 81 | 1019.0 | |
| 20260906141016 | 59 | 0.0 | 0.0 | 0.00 | 0.00 | 0.00 | 82 | 1018.7 | |
| 20260906140017 | 58 | 0.0 | 0.0 | 0.00 | 0.00 | 0.00 | 83 | 1019.1 | |
| 20260906135036 | 58 | 0.0 | 0.0 | 0.00 | 0.00 | 0.00 | 83 | 1019.0 | |
| 20260906134016 | 58 | 0.0 | 0.0 | 0.00 | 0.00 | 0.00 | 82 | 1019.0 | |
| 20260906133017 | 58 | 0.0 | 0.0 | 0.00 | 0.00 | 0.00 | 80 | 1019.7 | |
| 20260906132017 | 58 | 0.0 | 0.0 | 0.00 | 0.00 | 0.00 | 79 | 1019.6 | |
| 20260906131017 | 58 | 0.0 | 0.0 | 0.00 | 0.00 | 0.00 | 78 | 1019.3 | |
| 20260906130017 | 58 | 0.0 | 0.0 | 0.00 | 0.00 | 0.00 | 78 | 1019.9 | |
| 20260906125017 | 58 | 0.0 | 0.0 | 0.00 | 0.00 | 0.00 | 78 | 1019.7 | |
| 20260906124017 | 58 | 0.0 | 0.0 | 0.00 | 0.00 | 0.00 | 78 | 1019.5 | |
| 20260906123017 | 59 | 0.0 | 0.0 | 0.00 | 0.00 | 0.00 | 78 | 1020.0 | |
| 20260906122017 | 59 | 0.0 | 0.0 | 0.00 | 0.00 | 0.00 | 77 | 1020.0 | |
| 20260906121017 | 59 | 0.0 | 0.0 | 0.00 | 0.00 | 0.00 | 77 | 1020.0 | |
| 20260906120017 | 59 | 0.0 | 0.0 | 0.00 | 0.00 | 0.00 | 76 | 1020.4 | |
| 20260906115016 | 59 | 0.0 | 0.0 | 0.00 | 0.00 | 0.00 | 74 | 1020.5 | |
| 20260906114017 | 60 | 0.0 | 0.0 | 0.00 | 0.00 | 0.00 | 75 | 1020.5 | |
| 20260906113017 | 60 | 0.0 | 0.0 | 0.00 | 0.00 | 0.00 | 73 | 1021.2 | |
| 20260906112017 | 60 | 0.0 | 0.0 | 0.00 | 0.00 | 0.00 | 73 | 1020.9 | |
| 20260906111057 | 60 | 0.0 | 0.0 | 0.00 | 0.00 | 0.00 | 73 | 1020.9 | |
| 20260906110017 | 61 | 0.0 | 0.0 | 0.00 | 0.00 | 0.00 | 72 | 1020.6 | |
| 20260906105017 | 61 | 0.0 | 0.0 | 0.00 | 0.00 | 0.00 | 70 | 1020.8 | |
| 20260906104037 | 61 | 0.0 | 0.0 | 0.00 | 0.00 | 0.00 | 70 | 1020.8 | |
| 20260906103037 | 61 | 0.0 | 0.0 | 0.00 | 0.00 | 0.00 | 69 | 1020.9 | |
| 20260906102017 | 61 | 0.0 | 0.0 | 0.00 | 0.00 | 0.00 | 69 | 1020.9 | |
| 20260906101016 | 62 | 0.0 | 0.0 | 0.00 | 0.00 | 0.00 | 69 | 1020.6 | |
| 20260906100017 | 62 | 0.0 | 0.0 | 0.00 | 0.00 | 0.00 | 68 | 1020.9 | |
| 20260906095017 | 62 | 0.0 | 0.0 | 0.00 | 0.00 | 0.00 | 67 | 1021.0 | |
| 20260906094037 | 62 | 0.0 | 0.0 | 0.00 | 0.00 | 0.00 | 67 | 1021.0 | |
| 20260906093037 | 62 | 0.0 | 0.0 | 0.00 | 0.00 | 0.00 | 67 | 1020.7 | |
| 20260906092017 | 63 | 0.0 | 0.0 | 0.00 | 0.00 | 0.00 | 66 | 1021.0 | |
| 20260906091017 | 63 | 0.0 | 0.0 | 0.00 | 0.00 | 0.00 | 66 | 1020.9 | |
| 20260906090017 | 64 | 0.0 | 0.0 | 0.00 | 0.00 | 0.00 | 65 | 1021.1 | |
| 20260906085017 | 64 | 0.0 | 0.0 | 0.00 | 0.00 | 0.00 | 65 | 1021.1 | |
| 20260906084016 | 64 | 0.0 | 0.0 | 0.00 | 0.00 | 0.00 | 63 | 1021.0 | |
| 20260906083017 | 65 | 0.0 | 0.0 | 0.00 | 0.00 | 0.00 | 63 | 1020.9 | |
| 20260906082017 | 65 | 0.0 | 0.0 | 0.00 | 0.00 | 0.00 | 62 | 1021.0 | |
| 20260906081037 | 66 | 0.0 | 0.0 | 0.00 | 0.00 | 0.00 | 61 | 1021.5 | |
| 20260906080057 | 67 | 0.0 | 0.0 | 0.00 | 0.00 | 0.00 | 60 | 1021.1 | |
| 20260906075017 | 67 | 0.0 | 0.0 | 0.00 | 0.00 | 0.00 | 58 | 1021.0 | |
| 20260906074017 | 67 | 0.0 | 0.0 | 0.00 | 0.00 | 0.00 | 57 | 1020.9 | |
| 20260906073037 | 68 | 0.0 | 0.0 | 0.00 | 0.00 | 0.00 | 55 | 1020.9 | |
| 20260906072016 | 69 | 0.0 | 0.0 | 0.00 | 0.00 | 0.00 | 55 | 1021.1 | |
| 20260906071016 | 69 | 0.0 | 0.0 | 0.00 | 0.00 | 0.00 | 53 | 1021.0 | |
| 20260906070017 | 70 | 0.0 | 2.0 | 0.00 | 0.00 | 0.00 | 53 | 1021.0 | |
| 20260906065057 | 70 | 203 | 1.0 | 4.0 | 0.00 | 0.00 | 0.00 | 52 | 1021.0 |
| 20260906064017 | 70 | 180 | 2.0 | 4.0 | 0.00 | 0.00 | 0.00 | 51 | 1021.2 |
| 20260906063037 | 71 | 203 | 1.0 | 3.0 | 0.00 | 0.00 | 0.00 | 50 | 1021.1 |
| 20260906062017 | 72 | 315 | 1.0 | 3.0 | 0.00 | 0.00 | 0.00 | 50 | 1021.2 |
| 20260906061017 | 72 | 270 | 1.0 | 3.0 | 0.00 | 0.00 | 0.00 | 49 | 1021.8 |
| 20260906060017 | 73 | 225 | 1.0 | 4.0 | 0.00 | 0.00 | 0.00 | 48 | 1021.8 |
| 20260906055017 | 73 | 0.0 | 1.0 | 0.00 | 0.00 | 0.00 | 46 | 1021.8 | |
| 20260906054017 | 74 | 0.0 | 0.0 | 0.00 | 0.00 | 0.00 | 45 | 1021.6 | |
| 20260906053016 | 74 | 0.0 | 0.0 | 0.00 | 0.00 | 0.00 | 44 | 1021.3 | |
| 20260906052037 | 74 | 270 | 1.0 | 5.0 | 0.00 | 0.00 | 0.00 | 44 | 1021.3 |
| 20260906051017 | 73 | 315 | 1.0 | 3.0 | 0.00 | 0.00 | 0.00 | 43 | 1020.6 |
| 20260906050017 | 73 | 270 | 4.0 | 10.0 | 0.00 | 0.00 | 0.00 | 42 | 1020.2 |
| 20260906045017 | 73 | 315 | 1.0 | 3.0 | 0.00 | 0.00 | 0.00 | 43 | 1020.1 |
| 20260906044037 | 72 | 270 | 1.0 | 3.0 | 0.00 | 0.00 | 0.00 | 44 | 1020.4 |
| 20260906043017 | 72 | 270 | 2.0 | 6.0 | 0.00 | 0.00 | 0.00 | 45 | 1019.1 |
| 20260906042017 | 71 | 0.0 | 0.0 | 0.00 | 0.00 | 0.00 | 47 | 1018.9 | |
| 20260906041017 | 71 | 0.0 | 0.0 | 0.00 | 0.00 | 0.00 | 47 | 1018.6 | |
| 20260906040037 | 71 | 180 | 2.0 | 6.0 | 0.00 | 0.00 | 0.00 | 51 | 1018.0 |
| 20260906035017 | 71 | 0.0 | 0.0 | 0.00 | 0.00 | 0.00 | 47 | 1017.4 | |
| 20260906034017 | 72 | 0.0 | 0.0 | 0.00 | 0.00 | 0.00 | 46 | 1017.0 | |
| 20260906033037 | 72 | 0.0 | 0.0 | 0.00 | 0.00 | 0.00 | 46 | 1016.5 | |
| 20260906032017 | 73 | 0.0 | 0.0 | 0.00 | 0.00 | 0.00 | 46 | 1016.8 | |
| 20260906031017 | 74 | 0.0 | 0.0 | 0.00 | 0.00 | 0.00 | 42 | 1016.6 | |
| 20260906030037 | 74 | 0.0 | 0.0 | 0.00 | 0.00 | 0.00 | 41 | 1015.9 | |
| 20260906025017 | 75 | 0.0 | 0.0 | 0.00 | 0.00 | 0.00 | 42 | 1015.7 | |
| 20260906024017 | 76 | 0.0 | 0.0 | 0.00 | 0.00 | 0.00 | 43 | 1016.0 | |
| 20260906023017 | 76 | 0.0 | 0.0 | 0.00 | 0.00 | 0.00 | 40 | 1014.6 | |
| 20260906022017 | 77 | 0.0 | 0.0 | 0.00 | 0.00 | 0.00 | 39 | 1014.6 | |
| 20260906021037 | 78 | 0.0 | 0.0 | 0.00 | 0.00 | 0.00 | 37 | 1014.9 | |
| 20260906020017 | 79 | 0.0 | 0.0 | 0.00 | 0.00 | 0.00 | 37 | 1014.5 | |
| 20260906015017 | 80 | 0.0 | 0.0 | 0.00 | 0.00 | 0.00 | 36 | 1014.7 | |
| 20260906014017 | 81 | 0.0 | 0.0 | 0.00 | 0.00 | 0.00 | 35 | 1014.6 | |
| 20260906013037 | 82 | 0.0 | 0.0 | 0.00 | 0.00 | 0.00 | 33 | 1014.5 | |
| 20260906012017 | 83 | 0.0 | 0.0 | 0.00 | 0.00 | 0.00 | 32 | 1014.4 | |
| 20260906011017 | 84 | 0.0 | 0.0 | 0.00 | 0.00 | 0.00 | 29 | 1014.6 | |
| 20260906010017 | 86 | 0.0 | 0.0 | 0.00 | 0.00 | 0.00 | 28 | 1014.9 | |
| 20260906005017 | 87 | 0.0 | 0.0 | 0.00 | 0.00 | 0.00 | 27 | 1015.4 | |
| 20260906004017 | 88 | 0.0 | 0.0 | 0.00 | 0.00 | 0.00 | 26 | 1015.3 | |
| 20260906003016 | 89 | 0.0 | 0.0 | 0.00 | 0.00 | 0.00 | 23 | 1015.5 | |
| 20260906002017 | 89 | 23 | 1.0 | 3.0 | 0.00 | 0.00 | 0.00 | 22 | 1015.4 |
| 20260906001017 | 90 | 23 | 2.0 | 5.0 | 0.00 | 0.00 | 0.00 | 22 | 1015.7 |
| 20260906000017 | 91 | 315 | 1.0 | 5.0 | 0.00 | 0.00 | 0.00 | 22 | 1015.6 |
| 20260905235037 | 91 | 0 | 2.0 | 5.0 | 0.00 | 0.00 | 0.00 | 21 | 1015.5 |
| 20260905234017 | 92 | 0 | 2.0 | 5.0 | 0.00 | 0.00 | 0.00 | 21 | 1015.9 |
| 20260905233017 | 92 | 0 | 2.0 | 6.0 | 0.00 | 0.00 | 0.00 | 21 | 1015.9 |
| 20260905232017 | 93 | 0 | 5.0 | 10.0 | 0.00 | 0.00 | 0.00 | 20 | 1016.2 |
| 20260905231037 | 94 | 23 | 3.0 | 5.0 | 0.00 | 0.00 | 0.00 | 19 | 1016.2 |
| 20260905230017 | 95 | 315 | 3.0 | 8.0 | 0.00 | 0.00 | 0.00 | 19 | 1016.6 |
| 20260905225037 | 95 | 315 | 2.0 | 5.0 | 0.00 | 0.00 | 0.00 | 19 | 1016.5 |
| 20260905224017 | 95 | 23 | 2.0 | 7.0 | 0.00 | 0.00 | 0.00 | 19 | 1016.5 |
| 20260905223017 | 95 | 23 | 2.0 | 5.0 | 0.00 | 0.00 | 0.00 | 20 | 1017.0 |
| 20260905222017 | 95 | 315 | 3.0 | 8.0 | 0.00 | 0.00 | 0.00 | 19 | 1017.1 |